createdAt,value
2016-12-26T00:00:07.321Z,10.11
2016-12-26T00:01:07.720Z,10.07
2016-12-26T00:02:07.462Z,10.10
2016-12-26T00:03:08.711Z,10.10
2016-12-26T00:04:07.298Z,10.07
2016-12-26T00:05:08.361Z,10.09
2016-12-26T00:06:08.187Z,10.06
2016-12-26T00:07:07.219Z,10.11
2016-12-26T00:08:14.747Z,10.14
2016-12-26T00:09:07.363Z,10.19
2016-12-26T00:10:07.956Z,10.20
2016-12-26T00:11:07.494Z,10.21
2016-12-26T00:12:08.113Z,10.21
2016-12-26T00:13:07.572Z,10.23
2016-12-26T00:14:08.116Z,10.21
2016-12-26T00:15:07.734Z,10.25
2016-12-26T00:16:08.670Z,10.25
2016-12-26T00:17:07.308Z,10.24
2016-12-26T00:18:08.755Z,10.23
2016-12-26T00:19:07.322Z,10.19
2016-12-26T00:20:08.035Z,10.21
2016-12-26T00:21:07.603Z,10.16
2016-12-26T00:22:07.148Z,10.16
2016-12-26T00:23:07.685Z,10.19
2016-12-26T00:24:07.329Z,10.20
2016-12-26T00:25:07.969Z,10.18
2016-12-26T00:26:07.558Z,10.16
2016-12-26T00:27:13.696Z,10.12
2016-12-26T00:28:07.212Z,10.10
2016-12-26T00:29:07.798Z,10.06
2016-12-26T00:30:08.276Z,10.10
2016-12-26T00:31:07.910Z,10.10
2016-12-26T00:32:07.480Z,10.16
2016-12-26T00:33:08.756Z,10.19
2016-12-26T00:34:07.401Z,10.21
2016-12-26T00:35:07.936Z,10.17
2016-12-26T00:36:07.744Z,10.15
2016-12-26T00:37:07.294Z,10.16
2016-12-26T00:38:07.834Z,10.18
2016-12-26T00:39:07.396Z,10.17
2016-12-26T00:40:07.939Z,10.15
2016-12-26T00:41:07.543Z,10.13
2016-12-26T00:42:08.460Z,10.10
2016-12-26T00:43:07.926Z,10.13
2016-12-26T00:44:07.621Z,10.14
2016-12-26T00:45:07.125Z,10.13
2016-12-26T00:46:08.569Z,10.16
2016-12-26T00:47:08.132Z,10.11
2016-12-26T00:48:07.707Z,10.09
2016-12-26T00:49:07.263Z,10.13
2016-12-26T00:50:07.820Z,10.11
2016-12-26T00:51:07.335Z,10.13
2016-12-26T00:52:07.954Z,10.17
2016-12-26T00:53:07.520Z,10.19
2016-12-26T00:54:08.163Z,10.15
2016-12-26T00:55:07.713Z,10.02
2016-12-26T00:56:07.320Z,10.06
2016-12-26T00:57:07.852Z,10.12
2016-12-26T00:58:07.443Z,10.13
2016-12-26T00:59:08.004Z,10.18
2016-12-26T01:00:07.871Z,10.18
2016-12-26T01:01:07.996Z,10.17
2016-12-26T01:02:07.499Z,10.10
2016-12-26T01:03:08.128Z,10.14
2016-12-26T01:04:08.042Z,10.11
2016-12-26T01:05:07.283Z,10.16
2016-12-26T01:06:07.902Z,10.16
2016-12-26T01:07:07.440Z,10.18
2016-12-26T01:08:08.108Z,10.17
2016-12-26T01:09:07.555Z,10.16
2016-12-26T01:10:07.887Z,10.15
2016-12-26T01:11:07.395Z,10.21
2016-12-26T01:12:07.644Z,10.20
2016-12-26T01:13:07.095Z,10.18
2016-12-26T01:14:07.689Z,10.15
2016-12-26T01:15:07.239Z,10.18
2016-12-26T01:16:08.332Z,10.21
2016-12-26T01:17:07.808Z,10.19
2016-12-26T01:18:07.176Z,10.21
2016-12-26T01:19:08.197Z,10.19
2016-12-26T01:20:07.316Z,10.17
2016-12-26T01:21:07.828Z,10.16
2016-12-26T01:22:07.440Z,10.21
2016-12-26T01:23:07.644Z,10.22
2016-12-26T01:24:07.407Z,10.24
2016-12-26T01:25:08.269Z,10.24
2016-12-26T01:26:07.853Z,10.25
2016-12-26T01:27:07.685Z,10.23
2016-12-26T01:28:07.547Z,10.23
2016-12-26T01:29:08.175Z,10.26
2016-12-26T01:30:07.802Z,10.26
2016-12-26T01:31:08.034Z,10.28
2016-12-26T01:32:08.961Z,10.28
2016-12-26T01:33:07.518Z,10.27
2016-12-26T01:34:07.375Z,10.27
2016-12-26T01:35:08.297Z,10.26
2016-12-26T01:36:07.958Z,10.32
2016-12-26T01:37:07.906Z,10.31
2016-12-26T01:38:07.474Z,10.30
2016-12-26T01:39:07.801Z,10.31
2016-12-26T01:40:07.332Z,10.27
2016-12-26T01:41:07.315Z,10.25
2016-12-26T01:42:07.913Z,10.28
2016-12-26T01:43:08.353Z,10.29
2016-12-26T01:44:07.915Z,10.30
2016-12-26T01:45:07.621Z,10.32
2016-12-26T01:46:07.172Z,10.29
2016-12-26T01:47:07.712Z,10.30
2016-12-26T01:48:07.813Z,10.30
2016-12-26T01:49:07.363Z,10.32
2016-12-26T01:50:08.193Z,10.30
2016-12-26T01:51:07.884Z,10.29
2016-12-26T01:52:07.451Z,10.30
2016-12-26T01:53:07.873Z,10.33
2016-12-26T01:54:07.322Z,10.31
2016-12-26T01:55:08.128Z,10.32
2016-12-26T01:56:07.904Z,10.33
2016-12-26T01:57:07.394Z,10.33
2016-12-26T01:58:07.729Z,10.33
2016-12-26T01:59:08.164Z,10.33
2016-12-26T02:00:08.053Z,10.39
2016-12-26T02:01:07.713Z,10.35
2016-12-26T02:02:07.433Z,10.29
2016-12-26T02:03:07.863Z,10.30
2016-12-26T02:04:08.052Z,10.30
2016-12-26T02:05:07.609Z,10.26
2016-12-26T02:06:07.571Z,10.25
2016-12-26T02:07:07.857Z,10.24
2016-12-26T02:08:07.340Z,10.27
2016-12-26T02:09:08.009Z,10.26
2016-12-26T02:10:07.765Z,10.25
2016-12-26T02:11:07.377Z,10.23
2016-12-26T02:12:08.000Z,10.26
2016-12-26T02:13:07.724Z,10.28
2016-12-26T02:14:07.962Z,10.29
2016-12-26T02:15:07.422Z,10.25
2016-12-26T02:16:08.223Z,10.24
2016-12-26T02:17:07.974Z,10.31
2016-12-26T02:18:07.504Z,10.33
2016-12-26T02:19:08.083Z,10.36
2016-12-26T02:20:07.412Z,10.39
2016-12-26T02:21:08.246Z,10.37
2016-12-26T02:22:07.811Z,10.39
2016-12-26T02:23:07.714Z,10.38
2016-12-26T02:24:07.321Z,10.33
2016-12-26T02:25:07.844Z,10.34
2016-12-26T02:26:07.656Z,10.32
2016-12-26T02:27:07.540Z,10.31
2016-12-26T02:28:08.243Z,10.27
2016-12-26T02:29:07.956Z,10.26
2016-12-26T02:30:07.310Z,10.26
2016-12-26T02:31:07.912Z,10.23
2016-12-26T02:32:07.426Z,10.24
2016-12-26T02:33:08.284Z,10.26
2016-12-26T02:34:07.960Z,10.29
2016-12-26T02:35:07.549Z,10.37
2016-12-26T02:36:08.120Z,10.36
2016-12-26T02:37:07.772Z,10.29
2016-12-26T02:38:07.676Z,10.27
2016-12-26T02:39:07.268Z,10.30
2016-12-26T02:40:07.799Z,10.30
2016-12-26T02:41:07.299Z,10.27
2016-12-26T02:42:07.590Z,10.28
2016-12-26T02:43:07.350Z,10.28
2016-12-26T02:44:08.237Z,10.27
2016-12-26T02:45:07.795Z,10.31
2016-12-26T02:46:07.313Z,10.32
2016-12-26T02:47:07.928Z,10.35
2016-12-26T02:48:07.412Z,10.31
2016-12-26T02:49:07.968Z,10.27
2016-12-26T02:50:07.675Z,10.23
2016-12-26T02:51:07.571Z,10.22
2016-12-26T02:52:08.097Z,10.28
2016-12-26T02:53:07.705Z,10.27
2016-12-26T02:54:07.346Z,10.26
2016-12-26T02:55:07.997Z,10.33
2016-12-26T02:56:07.794Z,10.42
2016-12-26T02:57:07.273Z,10.41
2016-12-26T02:58:07.844Z,10.36
2016-12-26T02:59:07.350Z,10.32
2016-12-26T03:00:07.882Z,10.34
2016-12-26T03:01:07.474Z,10.33
2016-12-26T03:02:08.089Z,10.25
2016-12-26T03:03:07.828Z,10.26
2016-12-26T03:04:07.368Z,10.28
2016-12-26T03:05:07.946Z,10.29
2016-12-26T03:06:07.940Z,10.23
2016-12-26T03:07:07.488Z,10.22
2016-12-26T03:08:08.072Z,10.23
2016-12-26T03:09:07.970Z,10.26
2016-12-26T03:10:07.669Z,10.25
2016-12-26T03:11:07.173Z,10.23
2016-12-26T03:12:07.987Z,10.22
2016-12-26T03:13:07.478Z,10.24
2016-12-26T03:14:07.981Z,10.18
2016-12-26T03:15:08.005Z,10.13
2016-12-26T03:16:07.575Z,10.03
2016-12-26T03:17:08.250Z,10.06
2016-12-26T03:18:07.865Z,10.19
2016-12-26T03:19:07.423Z,10.19
2016-12-26T03:20:08.355Z,10.18
2016-12-26T03:21:08.163Z,10.23
2016-12-26T03:22:07.784Z,10.26
2016-12-26T03:23:07.450Z,10.27
2016-12-26T03:24:07.974Z,10.29
2016-12-26T03:25:07.564Z,10.30
2016-12-26T03:26:07.669Z,10.28
2016-12-26T03:27:07.224Z,10.33
2016-12-26T03:28:07.921Z,10.35
2016-12-26T03:29:07.421Z,10.35
2016-12-26T03:30:07.917Z,10.31
2016-12-26T03:31:07.467Z,10.34
2016-12-26T03:32:08.064Z,10.40
2016-12-26T03:33:07.789Z,10.39
2016-12-26T03:34:07.447Z,10.37
2016-12-26T03:35:08.008Z,10.37
2016-12-26T03:36:07.975Z,10.34
2016-12-26T03:37:14.139Z,10.38
2016-12-26T03:38:07.955Z,10.33
2016-12-26T03:39:07.644Z,10.35
2016-12-26T03:40:07.424Z,10.37
2016-12-26T03:41:07.995Z,10.37
2016-12-26T03:42:07.629Z,10.35
2016-12-26T03:43:07.164Z,10.31
2016-12-26T03:44:07.973Z,10.33
2016-12-26T03:45:14.069Z,10.33
2016-12-26T03:46:07.677Z,10.34
2016-12-26T03:47:07.259Z,10.31
2016-12-26T03:48:07.797Z,10.31
2016-12-26T03:49:07.329Z,10.32
2016-12-26T03:50:07.860Z,10.29
2016-12-26T03:51:08.102Z,10.28
2016-12-26T03:52:07.743Z,10.28
2016-12-26T03:53:07.285Z,10.26
2016-12-26T03:54:10.441Z,10.27
2016-12-26T03:55:08.907Z,10.29
2016-12-26T03:56:18.040Z,10.23
2016-12-26T03:57:07.926Z,10.21
2016-12-26T03:58:12.924Z,10.21
2016-12-26T03:59:07.701Z,10.14
2016-12-26T04:00:07.257Z,10.13
2016-12-26T04:01:07.899Z,10.02
2016-12-26T04:02:07.763Z,10.02
2016-12-26T04:03:07.499Z,10.07
2016-12-26T04:04:08.023Z,10.08
2016-12-26T04:05:07.525Z,10.08
2016-12-26T04:06:07.984Z,10.13
2016-12-26T04:07:07.918Z,10.12
2016-12-26T04:08:07.794Z,10.12
2016-12-26T04:09:07.395Z,10.09
2016-12-26T04:10:07.970Z,10.08
2016-12-26T04:11:07.437Z,10.06
2016-12-26T04:12:08.046Z,10.12
2016-12-26T04:13:07.686Z,10.19
2016-12-26T04:14:07.244Z,10.15
2016-12-26T04:15:07.801Z,10.14
2016-12-26T04:16:07.394Z,10.14
2016-12-26T04:17:08.131Z,10.11
2016-12-26T04:18:08.015Z,10.09
2016-12-26T04:19:07.607Z,9.98
2016-12-26T04:20:07.298Z,9.97
2016-12-26T04:21:07.907Z,9.92
2016-12-26T04:22:07.567Z,9.91
2016-12-26T04:23:08.343Z,9.73
2016-12-26T04:24:07.960Z,9.76
2016-12-26T04:25:07.538Z,9.78
2016-12-26T04:26:08.086Z,9.86
2016-12-26T04:27:07.649Z,9.94
2016-12-26T04:28:07.207Z,9.90
2016-12-26T04:29:07.725Z,9.81
2016-12-26T04:30:07.184Z,9.71
2016-12-26T04:31:07.616Z,9.78
2016-12-26T04:32:07.827Z,9.82
2016-12-26T04:33:07.474Z,9.91
2016-12-26T04:34:08.023Z,9.86
2016-12-26T04:35:07.986Z,9.78
2016-12-26T04:36:07.491Z,9.83
2016-12-26T04:37:08.137Z,9.94
2016-12-26T04:38:07.707Z,9.96
2016-12-26T04:39:07.311Z,9.79
2016-12-26T04:40:08.771Z,9.81
2016-12-26T04:41:07.302Z,9.85
2016-12-26T04:42:08.002Z,9.82
2016-12-26T04:43:07.459Z,9.89
2016-12-26T04:44:08.105Z,9.86
2016-12-26T04:45:07.610Z,9.90
2016-12-26T04:46:07.166Z,9.97
2016-12-26T04:47:07.667Z,10.04
2016-12-26T04:48:07.251Z,9.92
2016-12-26T04:49:07.826Z,9.82
2016-12-26T04:50:07.564Z,9.92
2016-12-26T04:51:08.138Z,9.94
2016-12-26T04:52:07.749Z,9.95
2016-12-26T04:53:07.296Z,9.99
2016-12-26T04:54:08.004Z,10.02
2016-12-26T04:55:07.728Z,10.00
2016-12-26T04:56:07.311Z,9.99
2016-12-26T04:57:07.875Z,9.88
2016-12-26T04:58:07.426Z,9.93
2016-12-26T04:59:07.923Z,9.99
2016-12-26T05:00:07.414Z,9.95
2016-12-26T05:01:08.028Z,9.91
2016-12-26T05:02:07.632Z,9.92
2016-12-26T05:03:07.251Z,9.91
2016-12-26T05:04:07.760Z,9.89
2016-12-26T05:05:07.388Z,9.82
2016-12-26T05:06:08.250Z,9.69
2016-12-26T05:07:07.840Z,9.64
2016-12-26T05:08:07.474Z,9.72
2016-12-26T05:09:07.209Z,9.80
2016-12-26T05:10:07.762Z,9.83
2016-12-26T05:11:07.290Z,9.84
2016-12-26T05:12:07.866Z,9.88
2016-12-26T05:13:07.410Z,9.80
2016-12-26T05:14:07.991Z,9.77
2016-12-26T05:15:07.589Z,9.84
2016-12-26T05:16:07.185Z,9.81
2016-12-26T05:17:07.862Z,9.81
2016-12-26T05:18:07.694Z,9.86
2016-12-26T05:19:07.378Z,9.91
2016-12-26T05:20:07.894Z,9.87
2016-12-26T05:21:07.489Z,9.89
2016-12-26T05:22:08.082Z,9.88
2016-12-26T05:23:07.591Z,9.95
2016-12-26T05:24:07.442Z,9.98
2016-12-26T05:25:10.618Z,9.92
2016-12-26T05:26:07.970Z,9.90
2016-12-26T05:27:07.458Z,9.95
2016-12-26T05:28:08.557Z,9.98
2016-12-26T05:29:07.219Z,9.98
2016-12-26T05:30:07.775Z,9.99
2016-12-26T05:31:07.241Z,9.98
2016-12-26T05:32:07.760Z,9.99
2016-12-26T05:33:07.517Z,10.03
2016-12-26T05:34:08.185Z,10.06
2016-12-26T05:35:07.749Z,9.95
2016-12-26T05:36:07.507Z,9.92
2016-12-26T05:37:07.154Z,10.00
2016-12-26T05:38:07.732Z,10.03
2016-12-26T05:39:07.219Z,10.05
2016-12-26T05:40:07.133Z,10.05
2016-12-26T05:41:07.717Z,10.09
2016-12-26T05:42:07.227Z,10.03
2016-12-26T05:43:07.825Z,10.07
2016-12-26T05:44:07.651Z,10.00
2016-12-26T05:45:07.123Z,10.02
2016-12-26T05:46:07.717Z,10.04
2016-12-26T05:47:07.435Z,10.03
2016-12-26T05:48:07.145Z,10.05
2016-12-26T05:49:07.640Z,10.07
2016-12-26T05:50:07.136Z,10.13
2016-12-26T05:51:07.768Z,10.09
2016-12-26T05:52:08.222Z,10.08
2016-12-26T05:53:07.836Z,10.05
2016-12-26T05:54:07.301Z,10.09
2016-12-26T05:55:07.668Z,10.06
2016-12-26T05:56:07.247Z,10.06
2016-12-26T05:57:07.809Z,10.09
2016-12-26T05:58:07.422Z,10.11
2016-12-26T05:59:08.040Z,10.11
2016-12-26T06:00:07.602Z,10.10
2016-12-26T06:01:07.199Z,10.11
2016-12-26T06:02:07.617Z,10.08
2016-12-26T06:03:07.655Z,10.11
2016-12-26T06:04:07.120Z,10.12
2016-12-26T06:05:14.165Z,10.11
2016-12-26T06:06:08.024Z,10.15
2016-12-26T06:07:07.611Z,10.16
2016-12-26T06:08:07.072Z,10.17
2016-12-26T06:09:07.580Z,10.13
2016-12-26T06:10:08.110Z,10.17
2016-12-26T06:11:07.589Z,10.18
2016-12-26T06:12:07.109Z,10.23
2016-12-26T06:13:07.181Z,10.23
2016-12-26T06:14:07.795Z,10.24
2016-12-26T06:15:07.339Z,10.22
2016-12-26T06:16:07.898Z,10.24
2016-12-26T06:17:07.531Z,10.29
2016-12-26T06:18:08.089Z,10.30
2016-12-26T06:19:07.571Z,10.30
2016-12-26T06:20:08.120Z,10.31
2016-12-26T06:21:07.765Z,10.28
2016-12-26T06:22:07.265Z,10.17
2016-12-26T06:23:07.847Z,10.20
2016-12-26T06:24:07.485Z,10.22
2016-12-26T06:25:08.120Z,10.24
2016-12-26T06:26:07.725Z,10.25
2016-12-26T06:27:07.211Z,10.26
2016-12-26T06:28:08.639Z,10.34
2016-12-26T06:29:07.160Z,10.30
2016-12-26T06:30:07.792Z,10.33
2016-12-26T06:31:07.381Z,10.32
2016-12-26T06:32:07.973Z,10.34
2016-12-26T06:33:07.529Z,10.31
2016-12-26T06:34:07.646Z,10.29
2016-12-26T06:35:07.198Z,10.31
2016-12-26T06:36:07.704Z,10.36
2016-12-26T06:37:07.274Z,10.37
2016-12-26T06:38:07.957Z,10.42
2016-12-26T06:39:07.486Z,10.33
2016-12-26T06:40:08.113Z,10.38
2016-12-26T06:41:07.650Z,10.36
2016-12-26T06:42:07.185Z,10.40
2016-12-26T06:43:07.775Z,10.37
2016-12-26T06:47:21.320Z,10.56
2016-12-26T06:48:15.668Z,10.53
2016-12-26T06:49:34.065Z,10.61
2016-12-26T06:51:16.904Z,10.53
2016-12-26T06:52:16.934Z,10.69
2016-12-26T06:53:14.980Z,10.64
2016-12-26T07:26:11.055Z,10.59
2016-12-26T07:56:20.193Z,10.82
2016-12-26T07:58:30.065Z,10.73
2016-12-26T08:12:18.667Z,10.69
2016-12-26T08:16:17.986Z,10.78
2016-12-26T08:39:18.574Z,10.49
2016-12-26T08:44:28.380Z,10.50
2016-12-26T09:00:17.026Z,10.54
2016-12-26T09:10:22.730Z,10.71
2016-12-26T09:28:22.128Z,10.86
2016-12-26T09:54:20.122Z,11.27
2016-12-26T10:12:28.164Z,11.57
2016-12-26T10:19:35.610Z,11.79
2016-12-26T10:20:14.669Z,11.82
2016-12-26T10:26:17.535Z,11.84
2016-12-26T10:32:27.659Z,12.06
2016-12-26T10:34:12.883Z,12.11
2016-12-26T10:35:46.009Z,12.12
2016-12-26T10:44:48.848Z,12.10
2016-12-26T10:45:17.275Z,12.18
2016-12-26T10:46:13.023Z,12.20
2016-12-26T10:55:17.104Z,12.37
2016-12-26T10:56:45.644Z,12.44
2016-12-26T10:59:28.025Z,12.45
2016-12-26T11:00:47.097Z,12.54
2016-12-26T11:03:38.592Z,12.60
2016-12-26T11:05:27.909Z,12.54
2016-12-26T11:14:42.223Z,12.94
2016-12-26T11:23:13.493Z,12.98
2016-12-26T11:33:21.186Z,13.35
2016-12-26T11:34:13.442Z,13.35
2016-12-26T11:48:46.448Z,13.24
2016-12-26T12:00:12.763Z,13.10
2016-12-26T12:04:15.797Z,13.04
2016-12-26T12:26:16.748Z,12.60
2016-12-26T12:31:20.634Z,12.64
2016-12-26T12:32:12.767Z,12.60
2016-12-26T12:35:13.020Z,12.69
2016-12-26T12:54:14.027Z,12.38
2016-12-26T12:58:14.038Z,12.37
2016-12-26T12:59:33.138Z,12.34
2016-12-26T13:24:22.598Z,11.99
2016-12-26T13:55:48.415Z,11.57
2016-12-26T15:07:17.543Z,10.47
2016-12-26T15:58:33.071Z,10.14
2016-12-26T16:30:41.211Z,9.92
2016-12-26T17:28:13.539Z,9.74
2016-12-26T17:29:15.042Z,9.80
2016-12-26T17:59:10.142Z,9.61
2016-12-26T18:06:34.106Z,9.73
2016-12-26T18:14:14.176Z,9.54
2016-12-26T18:15:09.670Z,9.59
2016-12-26T18:16:07.715Z,9.52
2016-12-26T18:22:22.109Z,9.30
2016-12-26T18:52:17.571Z,8.96
2016-12-26T19:00:11.058Z,8.93
2016-12-26T19:08:18.824Z,8.87
2016-12-26T19:14:13.146Z,8.73
2016-12-26T20:16:17.442Z,8.25
2016-12-26T20:18:20.882Z,8.39
2016-12-26T22:45:38.563Z,6.41
2016-12-26T23:58:22.343Z,5.58
